createdAt,value
2018-03-01T00:00:33.735Z,25.33
2018-03-01T00:03:00.467Z,26.23
2018-03-01T00:05:27.214Z,27.27
2018-03-01T00:07:53.977Z,22.45
2018-03-01T00:10:20.703Z,26.87
2018-03-01T00:12:48.352Z,26.60
2018-03-01T00:15:15.098Z,26.67
2018-03-01T00:17:41.835Z,25.48
2018-03-01T00:20:08.611Z,25.10
2018-03-01T00:22:36.195Z,24.67
2018-03-01T00:25:02.994Z,24.50
2018-03-01T00:27:29.740Z,24.10
2018-03-01T00:29:56.465Z,25.33
2018-03-01T00:32:23.203Z,21.17
2018-03-01T00:34:49.944Z,21.67
2018-03-01T00:37:16.681Z,23.90
2018-03-01T00:39:43.444Z,26.05
2018-03-01T00:42:10.179Z,25.23
2018-03-01T00:44:36.908Z,25.60
2018-03-01T00:47:03.654Z,23.75
2018-03-01T00:49:30.368Z,22.80
2018-03-01T00:51:57.161Z,25.48
2018-03-01T00:54:23.899Z,23.48
2018-03-01T00:56:50.665Z,23.42
2018-03-01T00:59:17.395Z,25.45
2018-03-01T01:01:44.149Z,23.42
2018-03-01T01:04:10.892Z,24.92
2018-03-01T01:06:37.646Z,23.12
2018-03-01T01:09:05.200Z,25.45
2018-03-01T01:11:32.031Z,24.15
2018-03-01T01:13:58.794Z,25.40
2018-03-01T01:16:25.544Z,23.23
2018-03-01T01:18:52.292Z,24.45
2018-03-01T01:21:19.020Z,24.77
2018-03-01T01:23:45.729Z,24.50
2018-03-01T01:26:12.452Z,26.27
2018-03-01T01:28:39.183Z,23.20
2018-03-01T01:31:05.912Z,23.40
2018-03-01T01:33:32.656Z,23.35
2018-03-01T01:35:59.391Z,26.58
2018-03-01T01:38:26.104Z,26.12
2018-03-01T01:40:52.878Z,24.20
2018-03-01T01:43:19.591Z,23.80
2018-03-01T01:45:46.358Z,21.35
2018-03-01T01:48:13.074Z,24.25
2018-03-01T01:50:45.596Z,25.20
2018-03-01T01:53:12.335Z,25.30
2018-03-01T01:55:39.049Z,23.70
2018-03-01T01:58:05.788Z,23.77
2018-03-01T02:00:32.539Z,24.60
2018-03-01T02:02:59.263Z,23.98
2018-03-01T02:05:25.990Z,25.45
2018-03-01T02:07:52.697Z,26.30
2018-03-01T02:10:19.443Z,24.42
2018-03-01T02:12:46.187Z,25.88
2018-03-01T02:15:12.915Z,25.12
2018-03-01T02:17:39.681Z,25.48
2018-03-01T02:20:06.444Z,25.25
2018-03-01T02:22:33.227Z,24.70
2018-03-01T02:24:59.982Z,23.15
2018-03-01T02:27:26.719Z,24.63
2018-03-01T02:29:53.469Z,23.67
2018-03-01T02:32:20.176Z,23.05
2018-03-01T02:34:46.951Z,24.50
2018-03-01T02:37:13.682Z,22.70
2018-03-01T02:39:40.428Z,25.77
2018-03-01T02:42:07.174Z,24.48
2018-03-01T02:44:33.915Z,22.13
2018-03-01T02:47:00.623Z,25.45
2018-03-01T02:49:27.361Z,23.50
2018-03-01T02:51:54.088Z,24.37
2018-03-01T02:54:20.898Z,24.50
2018-03-01T02:56:47.669Z,25.12
2018-03-01T02:59:14.401Z,24.70
2018-03-01T03:01:41.146Z,23.10
2018-03-01T03:04:07.925Z,20.30
2018-03-01T03:06:34.736Z,25.23
2018-03-01T03:09:01.481Z,24.25
2018-03-01T03:11:28.189Z,24.58
2018-03-01T03:13:54.924Z,23.05
2018-03-01T03:16:21.671Z,23.38
2018-03-01T03:18:48.395Z,23.17
2018-03-01T03:21:15.146Z,22.55
2018-03-01T03:23:41.887Z,23.27
2018-03-01T03:26:08.633Z,25.27
2018-03-01T03:28:35.375Z,24.42
2018-03-01T03:31:02.085Z,21.80
2018-03-01T03:33:28.815Z,24.33
2018-03-01T03:35:55.544Z,22.55
2018-03-01T03:38:22.287Z,25.52
2018-03-01T03:40:49.022Z,25.12
2018-03-01T03:43:15.743Z,21.27
2018-03-01T03:45:42.491Z,23.90
2018-03-01T03:48:09.221Z,25.20
2018-03-01T03:50:36.004Z,23.38
2018-03-01T03:53:02.778Z,25.30
2018-03-01T03:55:29.486Z,21.95
2018-03-01T03:57:56.219Z,25.30
2018-03-01T04:00:22.943Z,23.38
2018-03-01T04:02:49.679Z,24.35
2018-03-01T04:05:16.412Z,23.52
2018-03-01T04:07:43.170Z,25.25
2018-03-01T04:10:09.896Z,24.42
2018-03-01T04:12:36.613Z,22.30
2018-03-01T04:15:03.364Z,24.35
2018-03-01T04:17:30.103Z,23.92
2018-03-01T04:19:56.838Z,24.87
2018-03-01T04:22:23.578Z,22.98
2018-03-01T04:24:50.290Z,22.85
2018-03-01T04:27:17.033Z,25.98
2018-03-01T04:29:43.823Z,23.02
2018-03-01T04:32:10.552Z,22.02
2018-03-01T04:34:37.280Z,24.60
2018-03-01T04:37:04.031Z,23.83
2018-03-01T04:39:30.768Z,24.30
2018-03-01T04:41:57.529Z,26.20
2018-03-01T04:44:24.266Z,22.87
2018-03-01T04:46:51.002Z,22.55
2018-03-01T04:49:17.732Z,23.90
2018-03-01T04:51:44.497Z,23.40
2018-03-01T04:54:11.248Z,22.00
2018-03-01T04:56:37.967Z,22.45
2018-03-01T04:59:04.709Z,19.55
2018-03-01T05:01:31.452Z,29.90
2018-03-01T05:03:58.449Z,25.70
2018-03-01T05:06:25.200Z,23.00
2018-03-01T05:08:51.932Z,26.25
2018-03-01T05:11:18.676Z,27.42
2018-03-01T05:13:45.431Z,22.15
2018-03-01T05:16:12.220Z,24.35
2018-03-01T05:18:38.978Z,23.10
2018-03-01T05:21:05.735Z,22.65
2018-03-01T05:23:32.488Z,24.12
2018-03-01T05:25:59.212Z,26.27
2018-03-01T05:28:25.980Z,25.15
2018-03-01T05:30:52.828Z,22.27
2018-03-01T05:33:19.586Z,23.10
2018-03-01T05:35:46.310Z,27.50
2018-03-01T05:38:13.363Z,24.98
2018-03-01T05:40:40.276Z,24.48
2018-03-01T05:43:07.004Z,26.67
2018-03-01T05:45:33.760Z,25.37
2018-03-01T05:48:00.486Z,22.42
2018-03-01T05:50:27.222Z,25.80
2018-03-01T05:52:53.943Z,25.37
2018-03-01T05:55:20.662Z,24.55
2018-03-01T05:57:47.436Z,26.92
2018-03-01T06:00:14.151Z,25.52
2018-03-01T06:02:40.901Z,26.80
2018-03-01T06:05:07.621Z,26.30
2018-03-01T06:07:34.381Z,26.52
2018-03-01T06:10:01.120Z,27.58
2018-03-01T06:12:27.862Z,26.60
2018-03-01T06:14:54.600Z,28.45
2018-03-01T06:17:21.337Z,27.25
2018-03-01T06:19:48.067Z,29.45
2018-03-01T06:22:14.833Z,25.85
2018-03-01T06:24:41.577Z,24.73
2018-03-01T06:27:08.376Z,25.83
2018-03-01T06:29:35.110Z,24.90
2018-03-01T06:32:01.815Z,27.50
2018-03-01T06:34:28.525Z,27.48
2018-03-01T06:36:55.278Z,25.83
2018-03-01T06:39:22.002Z,28.70
2018-03-01T06:41:48.717Z,26.27
2018-03-01T06:44:15.454Z,24.45
2018-03-01T06:46:42.163Z,25.60
2018-03-01T06:49:08.932Z,25.50
2018-03-01T06:51:35.642Z,25.80
2018-03-01T06:54:02.361Z,26.33
2018-03-01T06:56:29.093Z,29.05
2018-03-01T06:58:55.830Z,28.80
2018-03-01T07:01:22.557Z,27.75
2018-03-01T07:03:49.302Z,29.85
2018-03-01T07:06:16.014Z,29.83
2018-03-01T07:08:42.747Z,31.98
2018-03-01T07:11:09.467Z,33.00
2018-03-01T07:13:36.209Z,32.42
2018-03-01T07:16:02.931Z,29.98
2018-03-01T07:18:29.867Z,31.23
2018-03-01T07:21:06.148Z,32.85
2018-03-01T07:23:46.266Z,32.33
2018-03-01T07:26:13.162Z,31.48
2018-03-01T07:28:39.931Z,33.92
2018-03-01T07:31:07.297Z,33.60
2018-03-01T07:33:34.042Z,33.00
2018-03-01T07:36:00.774Z,35.05
2018-03-01T07:38:27.529Z,32.35
2018-03-01T07:40:54.259Z,31.42
2018-03-01T07:43:20.963Z,31.35
2018-03-01T07:45:47.711Z,32.92
2018-03-01T07:48:14.451Z,33.25
2018-03-01T07:50:41.237Z,32.38
2018-03-01T07:53:07.961Z,33.55
2018-03-01T07:55:34.684Z,29.92
2018-03-01T07:58:01.708Z,30.27
2018-03-01T08:00:28.423Z,28.38
2018-03-01T08:02:55.175Z,28.77
2018-03-01T08:05:21.909Z,30.70
2018-03-01T08:07:48.679Z,28.62
2018-03-01T08:10:15.412Z,29.60
2018-03-01T08:12:42.118Z,30.30
2018-03-01T08:15:08.859Z,32.85
2018-03-01T08:17:35.590Z,27.92
2018-03-01T08:20:02.299Z,32.53
2018-03-01T08:22:29.068Z,32.88
2018-03-01T08:24:55.822Z,36.90
2018-03-01T08:27:22.532Z,30.83
2018-03-01T08:29:49.276Z,33.45
2018-03-01T08:32:16.015Z,30.98
2018-03-01T08:34:42.740Z,31.83
2018-03-01T08:37:10.054Z,32.03
2018-03-01T08:39:36.979Z,31.70
2018-03-01T08:42:03.723Z,32.50
2018-03-01T08:44:30.598Z,32.17
2018-03-01T08:46:57.303Z,32.47
2018-03-01T08:49:24.043Z,33.75
2018-03-01T08:51:50.773Z,35.00
2018-03-01T08:54:25.427Z,36.08
2018-03-01T08:56:52.164Z,31.83
2018-03-01T08:59:18.896Z,35.22
2018-03-01T09:01:45.713Z,32.28
2018-03-01T09:04:12.429Z,34.55
2018-03-01T09:06:39.171Z,33.80
2018-03-01T09:09:05.913Z,34.63
2018-03-01T09:11:32.637Z,33.60
2018-03-01T09:13:59.384Z,32.72
2018-03-01T09:16:26.096Z,36.40
2018-03-01T09:18:52.835Z,35.60
2018-03-01T09:21:19.578Z,38.92
2018-03-01T09:23:46.321Z,37.70
2018-03-01T09:26:13.056Z,37.00
2018-03-01T09:28:39.876Z,36.22
2018-03-01T09:31:06.613Z,34.20
2018-03-01T09:33:33.355Z,37.38
2018-03-01T09:36:00.095Z,35.88
2018-03-01T09:38:26.918Z,36.75
2018-03-01T09:40:53.630Z,33.85
2018-03-01T09:43:20.428Z,36.05
2018-03-01T09:45:47.233Z,35.88
2018-03-01T09:48:13.971Z,37.53
2018-03-01T09:50:45.151Z,36.05
2018-03-01T09:53:11.874Z,36.55
2018-03-01T09:55:38.620Z,37.42
2018-03-01T09:58:05.350Z,37.33
2018-03-01T10:00:32.105Z,34.88
2018-03-01T10:02:58.954Z,36.20
2018-03-01T10:05:25.702Z,37.28
2018-03-01T10:07:52.436Z,36.47
2018-03-01T10:10:19.200Z,35.58
2018-03-01T10:12:45.931Z,40.35
2018-03-01T10:15:12.677Z,39.53
2018-03-01T10:17:39.398Z,38.97
2018-03-01T10:20:06.109Z,38.35
2018-03-01T10:22:32.871Z,38.45
2018-03-01T10:24:59.614Z,37.67
2018-03-01T10:27:26.409Z,39.15
2018-03-01T10:29:53.119Z,40.28
2018-03-01T10:32:19.846Z,36.38
2018-03-01T10:34:46.685Z,41.75
2018-03-01T10:37:13.408Z,39.22
2018-03-01T10:39:40.165Z,37.63
2018-03-01T10:42:06.994Z,40.17
2018-03-01T10:44:33.776Z,38.70
2018-03-01T10:47:00.541Z,40.90
2018-03-01T10:49:27.791Z,41.70
2018-03-01T10:51:54.551Z,41.25
2018-03-01T10:54:21.258Z,41.30
2018-03-01T10:56:47.983Z,40.33
2018-03-01T10:59:14.743Z,42.92
2018-03-01T11:01:56.370Z,39.95
2018-03-01T11:04:23.209Z,43.87
2018-03-01T11:06:50.011Z,44.78
2018-03-01T11:09:16.839Z,41.83
2018-03-01T11:11:43.789Z,42.58
2018-03-01T11:14:10.541Z,41.90
2018-03-01T11:16:37.292Z,45.08
2018-03-01T11:19:04.051Z,44.78
2018-03-01T11:21:30.788Z,43.60
2018-03-01T11:23:57.567Z,44.00
2018-03-01T11:26:24.316Z,43.03
2018-03-01T11:28:51.111Z,46.17
2018-03-01T11:31:17.907Z,43.35
2018-03-01T11:33:44.649Z,45.45
2018-03-01T11:36:11.398Z,45.38
2018-03-01T11:38:38.131Z,42.45
2018-03-01T11:41:04.880Z,43.67
2018-03-01T11:43:31.618Z,46.58
2018-03-01T11:45:58.372Z,44.35
2018-03-01T11:48:25.214Z,44.67
2018-03-01T11:50:51.978Z,44.55
2018-03-01T11:53:18.724Z,43.70
2018-03-01T11:55:45.454Z,44.35
2018-03-01T11:58:12.212Z,45.90
2018-03-01T12:00:38.938Z,46.25
2018-03-01T12:03:05.738Z,46.88
2018-03-01T12:05:32.446Z,45.58
2018-03-01T12:07:59.171Z,45.28
2018-03-01T12:10:25.920Z,45.53
2018-03-01T12:12:54.364Z,44.10
2018-03-01T12:15:21.335Z,44.83
2018-03-01T12:17:48.077Z,46.20
2018-03-01T12:20:14.805Z,44.55
2018-03-01T12:22:41.559Z,44.88
2018-03-01T12:25:08.292Z,45.47
2018-03-01T12:27:38.127Z,44.40
2018-03-01T12:30:04.863Z,44.00
2018-03-01T12:32:31.583Z,42.58
2018-03-01T12:34:58.340Z,42.30
2018-03-01T12:37:25.056Z,42.40
2018-03-01T12:39:51.835Z,42.28
2018-03-01T12:42:18.590Z,40.47
2018-03-01T12:44:45.393Z,39.42
2018-03-01T12:47:12.126Z,42.28
2018-03-01T12:49:38.878Z,41.88
2018-03-01T12:52:05.713Z,41.72
2018-03-01T12:54:32.472Z,43.80
2018-03-01T12:56:59.262Z,42.70
2018-03-01T12:59:26.052Z,37.88
2018-03-01T13:01:52.814Z,36.17
2018-03-01T13:04:20.218Z,36.03
2018-03-01T13:06:46.987Z,39.70
2018-03-01T13:09:13.781Z,41.53
2018-03-01T13:11:40.560Z,44.42
2018-03-01T13:14:07.345Z,41.65
2018-03-01T13:16:34.139Z,41.70
2018-03-01T13:19:00.903Z,42.78
2018-03-01T13:21:27.671Z,41.35
2018-03-01T13:23:54.451Z,40.67
2018-03-01T13:26:21.231Z,41.67
2018-03-01T13:28:47.984Z,42.60
2018-03-01T13:31:26.491Z,42.05
2018-03-01T13:33:55.077Z,44.10
2018-03-01T13:36:21.866Z,43.87
2018-03-01T13:38:48.630Z,42.62
2018-03-01T13:41:15.370Z,42.30
2018-03-01T13:43:42.146Z,42.45
2018-03-01T13:46:08.946Z,41.00
2018-03-01T13:48:35.686Z,45.50
2018-03-01T13:51:02.448Z,43.35
2018-03-01T13:53:29.206Z,41.22
2018-03-01T13:55:55.940Z,41.15
2018-03-01T13:58:22.702Z,40.50
2018-03-01T14:00:49.450Z,37.10
2018-03-01T14:03:16.195Z,37.10
2018-03-01T14:05:58.731Z,39.10
2018-03-01T14:08:25.479Z,35.15
2018-03-01T14:10:52.220Z,36.35
2018-03-01T14:13:19.879Z,37.63
2018-03-01T14:15:46.648Z,36.42
2018-03-01T14:18:20.915Z,32.78
2018-03-01T14:20:53.442Z,35.13
2018-03-01T14:23:35.042Z,32.25
2018-03-01T14:26:11.683Z,29.83
2018-03-01T14:28:39.213Z,29.67
2018-03-01T14:31:05.978Z,32.17
2018-03-01T14:33:32.719Z,31.95
2018-03-01T14:35:59.457Z,31.95
2018-03-01T14:38:26.189Z,31.95
2018-03-01T14:40:52.911Z,33.53
2018-03-01T14:43:19.654Z,34.28
2018-03-01T14:45:46.388Z,35.80
2018-03-01T14:48:13.115Z,35.92
2018-03-01T14:50:39.853Z,33.83
2018-03-01T14:53:06.575Z,34.30
2018-03-01T14:55:33.306Z,36.15
2018-03-01T14:58:00.037Z,37.92
2018-03-01T15:00:26.751Z,36.75
2018-03-01T15:02:53.478Z,34.40
2018-03-01T15:05:20.200Z,36.80
2018-03-01T15:07:46.903Z,36.90
2018-03-01T15:10:13.647Z,38.28
2018-03-01T15:12:40.376Z,38.08
2018-03-01T15:15:07.118Z,38.45
2018-03-01T15:17:33.826Z,37.60
2018-03-01T15:20:00.552Z,35.83
2018-03-01T15:22:27.274Z,36.80
2018-03-01T15:24:54.003Z,35.28
2018-03-01T15:27:20.754Z,38.90
2018-03-01T15:29:47.463Z,36.72
2018-03-01T15:32:14.185Z,39.78
2018-03-01T15:34:40.924Z,37.80
2018-03-01T15:37:07.639Z,39.55
2018-03-01T15:39:34.386Z,38.90
2018-03-01T15:42:01.109Z,41.10
2018-03-01T15:44:27.827Z,38.03
2018-03-01T15:46:54.573Z,39.55
2018-03-01T15:49:21.283Z,37.50
2018-03-01T15:51:48.021Z,40.47
2018-03-01T15:54:14.745Z,38.22
2018-03-01T15:56:41.466Z,40.45
2018-03-01T15:59:08.200Z,39.03
2018-03-01T16:01:34.945Z,39.50
2018-03-01T16:04:01.684Z,36.85
2018-03-01T16:06:28.408Z,39.08
2018-03-01T16:08:55.138Z,41.00
2018-03-01T16:11:21.860Z,40.53
2018-03-01T16:13:48.597Z,42.13
2018-03-01T16:16:15.326Z,42.30
2018-03-01T16:18:42.084Z,41.47
2018-03-01T16:21:08.827Z,40.30
2018-03-01T16:23:35.578Z,38.60
2018-03-01T16:26:02.306Z,37.85
2018-03-01T16:28:29.053Z,40.78
2018-03-01T16:30:55.810Z,39.92
2018-03-01T16:33:22.535Z,40.42
2018-03-01T16:35:49.285Z,41.60
2018-03-01T16:38:16.022Z,39.60
2018-03-01T16:40:42.758Z,39.20
2018-03-01T16:43:09.512Z,40.15
2018-03-01T16:45:36.215Z,39.88
2018-03-01T16:48:02.987Z,37.20
2018-03-01T16:50:29.722Z,40.20
2018-03-01T16:52:56.427Z,39.25
2018-03-01T16:55:23.162Z,44.55
2018-03-01T16:57:49.998Z,42.08
2018-03-01T17:00:16.773Z,42.45
2018-03-01T17:02:43.484Z,42.05
2018-03-01T17:05:10.250Z,42.55
2018-03-01T17:07:36.987Z,41.88
2018-03-01T17:10:03.851Z,44.30
2018-03-01T17:12:30.592Z,43.87
2018-03-01T17:14:57.344Z,44.72
2018-03-01T17:17:24.133Z,45.55
2018-03-01T17:19:50.892Z,43.40
2018-03-01T17:22:17.651Z,44.47
2018-03-01T17:24:44.405Z,41.63
2018-03-01T17:27:11.143Z,43.05
2018-03-01T17:29:37.896Z,45.60
2018-03-01T17:32:04.647Z,42.90
2018-03-01T17:34:31.378Z,43.40
2018-03-01T17:36:58.134Z,43.70
2018-03-01T17:39:24.899Z,43.38
2018-03-01T17:41:51.721Z,42.42
2018-03-01T17:44:18.504Z,41.20
2018-03-01T17:46:45.225Z,47.65
2018-03-01T17:49:11.960Z,44.70
2018-03-01T17:51:38.719Z,42.20
2018-03-01T17:54:05.487Z,46.35
2018-03-01T17:56:32.256Z,44.45
2018-03-01T17:58:59.018Z,42.08
2018-03-01T18:01:25.738Z,44.95
2018-03-01T18:03:52.511Z,44.08
2018-03-01T18:06:19.268Z,45.50
2018-03-01T18:08:46.043Z,43.67
2018-03-01T18:11:12.786Z,48.25
2018-03-01T18:13:39.537Z,45.75
2018-03-01T18:16:06.283Z,43.35
2018-03-01T18:18:33.025Z,48.00
2018-03-01T18:20:59.815Z,42.47
2018-03-01T18:23:26.551Z,41.37
2018-03-01T18:25:53.348Z,45.75
2018-03-01T18:28:20.099Z,42.62
2018-03-01T18:30:46.891Z,43.25
2018-03-01T18:33:13.668Z,41.88
2018-03-01T18:35:40.442Z,43.67
2018-03-01T18:38:07.179Z,40.80
2018-03-01T18:40:33.944Z,42.55
2018-03-01T18:43:00.674Z,46.08
2018-03-01T18:45:27.436Z,46.20
2018-03-01T18:47:54.177Z,44.92
2018-03-01T18:50:21.195Z,45.72
2018-03-01T18:52:48.039Z,48.13
2018-03-01T18:55:14.860Z,48.20
2018-03-01T18:57:41.650Z,49.88
2018-03-01T19:00:08.443Z,51.72
2018-03-01T19:02:35.282Z,49.90
2018-03-01T19:05:02.073Z,52.50
2018-03-01T19:07:28.862Z,52.05
2018-03-01T19:09:55.683Z,50.95
2018-03-01T19:12:22.476Z,52.65
2018-03-01T19:14:49.318Z,52.03
2018-03-01T19:17:16.201Z,50.78
2018-03-01T19:19:42.983Z,48.72
2018-03-01T19:22:09.780Z,48.70
2018-03-01T19:24:37.468Z,50.63
2018-03-01T19:27:04.714Z,48.40
2018-03-01T19:29:31.537Z,52.03
2018-03-01T19:31:58.798Z,48.70
2018-03-01T19:34:25.621Z,49.47
2018-03-01T19:36:52.412Z,49.75
2018-03-01T19:39:19.187Z,51.83
2018-03-01T19:41:45.960Z,50.65
2018-03-01T19:44:12.762Z,51.75
2018-03-01T19:46:39.526Z,53.28
2018-03-01T19:49:06.297Z,54.72
2018-03-01T19:51:33.163Z,52.97
2018-03-01T19:53:59.940Z,52.35
2018-03-01T19:56:26.722Z,52.60
2018-03-01T19:58:53.489Z,52.08
2018-03-01T20:01:20.329Z,51.67
2018-03-01T20:03:47.104Z,52.83
2018-03-01T20:06:13.859Z,54.03
2018-03-01T20:08:40.629Z,52.50
2018-03-01T20:11:07.470Z,57.05
2018-03-01T20:13:34.236Z,54.53
2018-03-01T20:16:01.022Z,57.33
2018-03-01T20:18:27.791Z,53.75
2018-03-01T20:20:54.577Z,57.45
2018-03-01T20:23:21.330Z,55.42
2018-03-01T20:25:48.137Z,56.72
2018-03-01T20:28:14.961Z,55.88
2018-03-01T20:30:41.947Z,53.28
2018-03-01T20:33:12.884Z,57.53
2018-03-01T20:35:39.839Z,52.65
2018-03-01T20:38:06.794Z,53.63
2018-03-01T20:40:34.033Z,55.00
2018-03-01T20:43:00.796Z,55.45
2018-03-01T20:45:27.569Z,53.25
2018-03-01T20:47:54.348Z,56.37
2018-03-01T20:50:21.111Z,52.03
2018-03-01T20:52:48.018Z,56.00
2018-03-01T20:55:14.882Z,58.87
2018-03-01T20:57:41.723Z,58.55
2018-03-01T21:00:08.467Z,57.80
2018-03-01T21:02:35.312Z,57.67
2018-03-01T21:05:02.214Z,55.58
2018-03-01T21:07:29.437Z,52.97
2018-03-01T21:09:56.339Z,56.28
2018-03-01T21:12:23.177Z,57.13
2018-03-01T21:14:49.937Z,55.88
2018-03-01T21:17:22.596Z,56.95
2018-03-01T21:19:49.354Z,56.13
2018-03-01T21:22:16.170Z,56.40
2018-03-01T21:24:42.905Z,52.60
2018-03-01T21:27:09.761Z,54.92
2018-03-01T21:29:36.493Z,56.97
2018-03-01T21:32:03.252Z,57.80
2018-03-01T21:34:35.577Z,56.17
2018-03-01T21:37:02.368Z,59.63
2018-03-01T21:39:29.122Z,56.05
2018-03-01T21:41:56.013Z,55.67
2018-03-01T21:44:22.787Z,56.50
2018-03-01T21:46:55.389Z,60.12
2018-03-01T21:49:28.784Z,57.88
2018-03-01T21:51:55.514Z,55.53
2018-03-01T21:54:22.243Z,57.33
2018-03-01T21:56:48.990Z,55.20
2018-03-01T21:59:15.743Z,57.10
2018-03-01T22:01:42.582Z,54.22
2018-03-01T22:04:09.347Z,54.20
2018-03-01T22:06:36.116Z,54.35
2018-03-01T22:09:02.978Z,54.90
2018-03-01T22:11:29.701Z,54.22
2018-03-01T22:14:01.840Z,53.78
2018-03-01T22:16:29.954Z,54.97
2018-03-01T22:18:56.743Z,56.72
2018-03-01T22:21:23.524Z,53.92
2018-03-01T22:23:50.251Z,52.25
2018-03-01T22:26:17.005Z,51.85
2018-03-01T22:28:43.740Z,52.42
2018-03-01T22:31:10.471Z,50.92
2018-03-01T22:33:37.213Z,55.30
2018-03-01T22:36:03.981Z,54.65
2018-03-01T22:38:30.732Z,52.03
2018-03-01T22:40:57.484Z,52.60
2018-03-01T22:43:24.219Z,50.65
2018-03-01T22:45:50.959Z,53.47
2018-03-01T22:48:17.682Z,52.03
2018-03-01T22:50:44.443Z,54.90
2018-03-01T22:53:11.191Z,54.67
2018-03-01T22:55:37.928Z,52.28
2018-03-01T22:58:04.720Z,55.58
2018-03-01T23:00:37.416Z,54.05
2018-03-01T23:03:04.150Z,53.38
2018-03-01T23:05:30.907Z,53.05
2018-03-01T23:07:57.637Z,53.58
2018-03-01T23:10:24.465Z,53.87
2018-03-01T23:12:51.228Z,54.30
2018-03-01T23:15:17.958Z,55.03
2018-03-01T23:17:44.714Z,55.20
2018-03-01T23:20:11.459Z,55.08
2018-03-01T23:22:38.212Z,53.25
2018-03-01T23:25:04.979Z,49.85
2018-03-01T23:27:31.725Z,56.13
2018-03-01T23:29:58.479Z,55.78
2018-03-01T23:32:25.231Z,53.63
2018-03-01T23:34:52.011Z,55.88
2018-03-01T23:37:18.741Z,57.62
2018-03-01T23:39:45.486Z,55.42
2018-03-01T23:42:12.265Z,58.13
2018-03-01T23:44:39.024Z,57.38
2018-03-01T23:47:05.768Z,57.05
2018-03-01T23:49:32.504Z,54.15
2018-03-01T23:51:59.291Z,58.38
2018-03-01T23:54:26.042Z,58.87
2018-03-01T23:56:52.772Z,53.83
2018-03-01T23:59:19.538Z,54.05
